sensor_id;sensor_type;location;lat;lon;timestamp;temperature;humidity
20487;DHT22;10402;49.012;8.370;2024-01-11T00:00:32;-0.90;67.90
20487;DHT22;10402;49.012;8.370;2024-01-11T00:02:57;-1.00;68.00
20487;DHT22;10402;49.012;8.370;2024-01-11T00:05:23;-1.00;68.10
20487;DHT22;10402;49.012;8.370;2024-01-11T00:07:49;-1.00;68.20
20487;DHT22;10402;49.012;8.370;2024-01-11T00:10:15;-1.00;68.40
20487;DHT22;10402;49.012;8.370;2024-01-11T00:12:41;-1.10;68.30
20487;DHT22;10402;49.012;8.370;2024-01-11T00:15:07;-1.10;68.40
20487;DHT22;10402;49.012;8.370;2024-01-11T00:17:33;-1.00;68.50
20487;DHT22;10402;49.012;8.370;2024-01-11T00:19:58;-1.10;68.40
20487;DHT22;10402;49.012;8.370;2024-01-11T00:22:24;-1.10;68.50
20487;DHT22;10402;49.012;8.370;2024-01-11T00:24:49;-1.00;68.60
20487;DHT22;10402;49.012;8.370;2024-01-11T00:27:15;-1.10;68.70
20487;DHT22;10402;49.012;8.370;2024-01-11T00:29:40;-1.10;68.80
20487;DHT22;10402;49.012;8.370;2024-01-11T00:32:06;-1.10;69.00
20487;DHT22;10402;49.012;8.370;2024-01-11T00:34:32;-1.20;68.90
20487;DHT22;10402;49.012;8.370;2024-01-11T00:36:57;-1.20;69.00
20487;DHT22;10402;49.012;8.370;2024-01-11T00:39:23;-1.20;69.30
20487;DHT22;10402;49.012;8.370;2024-01-11T00:41:48;-1.20;69.30
20487;DHT22;10402;49.012;8.370;2024-01-11T00:44:14;-1.20;69.40
20487;DHT22;10402;49.012;8.370;2024-01-11T00:46:40;-1.30;69.30
20487;DHT22;10402;49.012;8.370;2024-01-11T00:49:06;-1.30;69.50
20487;DHT22;10402;49.012;8.370;2024-01-11T00:51:32;-1.30;69.50
20487;DHT22;10402;49.012;8.370;2024-01-11T00:53:57;-1.30;69.40
20487;DHT22;10402;49.012;8.370;2024-01-11T00:56:23;-1.30;69.40
20487;DHT22;10402;49.012;8.370;2024-01-11T00:58:48;-1.30;69.60
20487;DHT22;10402;49.012;8.370;2024-01-11T01:01:14;-1.40;69.70
20487;DHT22;10402;49.012;8.370;2024-01-11T01:03:40;-1.40;69.70
20487;DHT22;10402;49.012;8.370;2024-01-11T01:06:06;-1.50;69.90
20487;DHT22;10402;49.012;8.370;2024-01-11T01:08:31;-1.40;70.00
20487;DHT22;10402;49.012;8.370;2024-01-11T01:10:57;-1.40;69.90
20487;DHT22;10402;49.012;8.370;2024-01-11T01:13:23;-1.40;70.00
20487;DHT22;10402;49.012;8.370;2024-01-11T01:15:48;-1.50;70.00
20487;DHT22;10402;49.012;8.370;2024-01-11T01:18:14;-1.50;70.10
20487;DHT22;10402;49.012;8.370;2024-01-11T01:20:40;-1.50;70.20
20487;DHT22;10402;49.012;8.370;2024-01-11T01:23:05;-1.50;70.30
20487;DHT22;10402;49.012;8.370;2024-01-11T01:25:31;-1.50;70.40
20487;DHT22;10402;49.012;8.370;2024-01-11T01:27:58;-1.50;70.40
20487;DHT22;10402;49.012;8.370;2024-01-11T01:30:24;-1.50;70.40
20487;DHT22;10402;49.012;8.370;2024-01-11T01:32:50;-1.60;70.60
20487;DHT22;10402;49.012;8.370;2024-01-11T01:35:16;-1.60;70.80
20487;DHT22;10402;49.012;8.370;2024-01-11T01:37:41;-1.60;70.90
20487;DHT22;10402;49.012;8.370;2024-01-11T01:40:08;-1.70;70.80
20487;DHT22;10402;49.012;8.370;2024-01-11T01:42:34;-1.70;70.80
20487;DHT22;10402;49.012;8.370;2024-01-11T01:44:59;-1.70;71.80
20487;DHT22;10402;49.012;8.370;2024-01-11T01:47:26;-1.80;71.00
20487;DHT22;10402;49.012;8.370;2024-01-11T01:49:52;-1.80;71.20
20487;DHT22;10402;49.012;8.370;2024-01-11T01:52:19;-1.80;71.30
20487;DHT22;10402;49.012;8.370;2024-01-11T01:54:46;-1.90;71.40
20487;DHT22;10402;49.012;8.370;2024-01-11T01:57:13;-1.90;71.60
20487;DHT22;10402;49.012;8.370;2024-01-11T01:59:39;-1.80;71.70
20487;DHT22;10402;49.012;8.370;2024-01-11T02:02:05;-1.80;71.80
20487;DHT22;10402;49.012;8.370;2024-01-11T02:04:31;-1.80;71.60
20487;DHT22;10402;49.012;8.370;2024-01-11T02:06:58;-1.80;71.60
20487;DHT22;10402;49.012;8.370;2024-01-11T02:09:24;-1.80;71.80
20487;DHT22;10402;49.012;8.370;2024-01-11T02:11:52;-1.80;71.80
20487;DHT22;10402;49.012;8.370;2024-01-11T02:14:18;-1.80;71.90
20487;DHT22;10402;49.012;8.370;2024-01-11T02:16:44;-1.90;72.00
20487;DHT22;10402;49.012;8.370;2024-01-11T02:19:13;-2.00;72.10
20487;DHT22;10402;49.012;8.370;2024-01-11T02:21:42;-2.00;72.30
20487;DHT22;10402;49.012;8.370;2024-01-11T02:24:08;-2.00;72.60
20487;DHT22;10402;49.012;8.370;2024-01-11T02:26:34;-1.90;72.80
20487;DHT22;10402;49.012;8.370;2024-01-11T02:29:00;-2.00;72.70
20487;DHT22;10402;49.012;8.370;2024-01-11T02:31:25;-2.00;72.70
20487;DHT22;10402;49.012;8.370;2024-01-11T02:33:54;-1.90;72.80
20487;DHT22;10402;49.012;8.370;2024-01-11T02:36:21;-2.00;72.80
20487;DHT22;10402;49.012;8.370;2024-01-11T02:38:47;-2.00;72.90
20487;DHT22;10402;49.012;8.370;2024-01-11T02:41:16;-2.00;73.00
20487;DHT22;10402;49.012;8.370;2024-01-11T02:43:46;-2.00;73.00
20487;DHT22;10402;49.012;8.370;2024-01-11T02:46:13;-2.00;73.10
20487;DHT22;10402;49.012;8.370;2024-01-11T02:48:39;-2.00;73.10
20487;DHT22;10402;49.012;8.370;2024-01-11T02:51:04;-2.10;73.20
20487;DHT22;10402;49.012;8.370;2024-01-11T02:53:30;-2.10;73.40
20487;DHT22;10402;49.012;8.370;2024-01-11T02:56:00;-2.00;73.50
20487;DHT22;10402;49.012;8.370;2024-01-11T02:58:25;-2.00;73.40
20487;DHT22;10402;49.012;8.370;2024-01-11T03:00:51;-2.10;73.30
20487;DHT22;10402;49.012;8.370;2024-01-11T03:03:16;-2.10;73.60
20487;DHT22;10402;49.012;8.370;2024-01-11T03:05:42;-2.10;73.90
20487;DHT22;10402;49.012;8.370;2024-01-11T03:08:07;-2.00;73.80
20487;DHT22;10402;49.012;8.370;2024-01-11T03:10:33;-2.10;73.70
20487;DHT22;10402;49.012;8.370;2024-01-11T03:12:59;-2.10;73.80
20487;DHT22;10402;49.012;8.370;2024-01-11T03:15:24;-2.10;73.80
20487;DHT22;10402;49.012;8.370;2024-01-11T03:17:50;-2.10;73.90
20487;DHT22;10402;49.012;8.370;2024-01-11T03:20:15;-2.10;73.90
20487;DHT22;10402;49.012;8.370;2024-01-11T03:22:45;-2.10;74.00
20487;DHT22;10402;49.012;8.370;2024-01-11T03:25:12;-2.10;74.00
20487;DHT22;10402;49.012;8.370;2024-01-11T03:27:37;-2.10;73.90
20487;DHT22;10402;49.012;8.370;2024-01-11T03:30:03;-2.10;73.90
20487;DHT22;10402;49.012;8.370;2024-01-11T03:32:29;-2.10;74.10
20487;DHT22;10402;49.012;8.370;2024-01-11T03:34:55;-2.10;74.00
20487;DHT22;10402;49.012;8.370;2024-01-11T03:37:21;-2.10;74.10
20487;DHT22;10402;49.012;8.370;2024-01-11T03:39:46;-2.20;74.00
20487;DHT22;10402;49.012;8.370;2024-01-11T03:42:12;-2.20;74.00
20487;DHT22;10402;49.012;8.370;2024-01-11T03:44:37;-2.20;74.00
20487;DHT22;10402;49.012;8.370;2024-01-11T03:47:03;-2.20;74.00
20487;DHT22;10402;49.012;8.370;2024-01-11T03:49:29;-2.20;74.00
20487;DHT22;10402;49.012;8.370;2024-01-11T03:51:54;-2.20;74.00
20487;DHT22;10402;49.012;8.370;2024-01-11T03:54:20;-2.20;74.00
20487;DHT22;10402;49.012;8.370;2024-01-11T03:56:45;-2.10;74.10
20487;DHT22;10402;49.012;8.370;2024-01-11T03:59:11;-2.10;74.10
20487;DHT22;10402;49.012;8.370;2024-01-11T04:01:43;-2.20;74.00
20487;DHT22;10402;49.012;8.370;2024-01-11T04:04:08;-2.20;74.00
20487;DHT22;10402;49.012;8.370;2024-01-11T04:06:34;-2.20;74.00
20487;DHT22;10402;49.012;8.370;2024-01-11T04:08:59;-2.20;74.00
20487;DHT22;10402;49.012;8.370;2024-01-11T04:11:28;-2.20;74.00
20487;DHT22;10402;49.012;8.370;2024-01-11T04:13:54;-2.20;74.00
20487;DHT22;10402;49.012;8.370;2024-01-11T04:16:20;-2.20;74.00
20487;DHT22;10402;49.012;8.370;2024-01-11T04:18:46;-2.30;73.90
20487;DHT22;10402;49.012;8.370;2024-01-11T04:21:25;-2.30;73.90
20487;DHT22;10402;49.012;8.370;2024-01-11T04:23:53;-2.30;73.90
20487;DHT22;10402;49.012;8.370;2024-01-11T04:26:19;-2.40;74.00
20487;DHT22;10402;49.012;8.370;2024-01-11T04:28:48;-2.40;74.00
20487;DHT22;10402;49.012;8.370;2024-01-11T04:31:15;-2.40;74.20
20487;DHT22;10402;49.012;8.370;2024-01-11T04:33:42;-2.30;74.30
20487;DHT22;10402;49.012;8.370;2024-01-11T04:36:08;-2.30;74.20
20487;DHT22;10402;49.012;8.370;2024-01-11T04:38:34;-2.30;74.00
20487;DHT22;10402;49.012;8.370;2024-01-11T04:41:00;-2.30;75.00
20487;DHT22;10402;49.012;8.370;2024-01-11T04:43:25;-2.40;74.40
20487;DHT22;10402;49.012;8.370;2024-01-11T04:45:51;-2.30;74.50
20487;DHT22;10402;49.012;8.370;2024-01-11T04:48:17;-2.30;74.50
20487;DHT22;10402;49.012;8.370;2024-01-11T04:50:44;-2.30;74.50
20487;DHT22;10402;49.012;8.370;2024-01-11T04:53:09;-2.30;74.50
20487;DHT22;10402;49.012;8.370;2024-01-11T04:55:35;-2.30;74.90
20487;DHT22;10402;49.012;8.370;2024-01-11T04:58:00;-2.30;74.30
20487;DHT22;10402;49.012;8.370;2024-01-11T05:00:26;-2.30;74.40
20487;DHT22;10402;49.012;8.370;2024-01-11T05:02:51;-2.30;74.40
20487;DHT22;10402;49.012;8.370;2024-01-11T05:05:17;-2.30;74.40
20487;DHT22;10402;49.012;8.370;2024-01-11T05:07:42;-2.30;74.30
20487;DHT22;10402;49.012;8.370;2024-01-11T05:10:08;-2.30;74.30
20487;DHT22;10402;49.012;8.370;2024-01-11T05:12:34;-2.20;74.50
20487;DHT22;10402;49.012;8.370;2024-01-11T05:14:59;-2.20;74.30
20487;DHT22;10402;49.012;8.370;2024-01-11T05:17:26;-2.20;74.00
20487;DHT22;10402;49.012;8.370;2024-01-11T05:19:51;-2.20;74.00
20487;DHT22;10402;49.012;8.370;2024-01-11T05:22:17;-2.30;74.00
20487;DHT22;10402;49.012;8.370;2024-01-11T05:24:43;-2.30;74.00
20487;DHT22;10402;49.012;8.370;2024-01-11T05:27:08;-2.20;74.10
20487;DHT22;10402;49.012;8.370;2024-01-11T05:29:34;-2.20;74.00
20487;DHT22;10402;49.012;8.370;2024-01-11T05:31:59;-2.20;74.00
20487;DHT22;10402;49.012;8.370;2024-01-11T05:34:25;-2.20;74.00
20487;DHT22;10402;49.012;8.370;2024-01-11T05:36:51;-2.20;74.00
20487;DHT22;10402;49.012;8.370;2024-01-11T05:39:16;-2.20;74.00
20487;DHT22;10402;49.012;8.370;2024-01-11T05:41:45;-2.20;74.00
20487;DHT22;10402;49.012;8.370;2024-01-11T05:44:10;-2.20;74.00
20487;DHT22;10402;49.012;8.370;2024-01-11T05:46:36;-2.20;74.00
20487;DHT22;10402;49.012;8.370;2024-01-11T05:49:01;-2.20;74.00
20487;DHT22;10402;49.012;8.370;2024-01-11T05:51:27;-2.20;74.00
20487;DHT22;10402;49.012;8.370;2024-01-11T05:53:53;-2.30;73.90
20487;DHT22;10402;49.012;8.370;2024-01-11T05:56:19;-2.20;74.00
20487;DHT22;10402;49.012;8.370;2024-01-11T05:58:46;-2.30;73.90
20487;DHT22;10402;49.012;8.370;2024-01-11T06:01:11;-2.30;73.90
20487;DHT22;10402;49.012;8.370;2024-01-11T06:03:37;-2.30;73.90
20487;DHT22;10402;49.012;8.370;2024-01-11T06:06:04;-2.30;73.90
20487;DHT22;10402;49.012;8.370;2024-01-11T06:08:30;-2.30;73.90
20487;DHT22;10402;49.012;8.370;2024-01-11T06:10:56;-2.30;73.90
20487;DHT22;10402;49.012;8.370;2024-01-11T06:13:22;-2.30;73.90
20487;DHT22;10402;49.012;8.370;2024-01-11T06:15:47;-2.30;73.90
20487;DHT22;10402;49.012;8.370;2024-01-11T06:18:13;-2.30;73.90
20487;DHT22;10402;49.012;8.370;2024-01-11T06:20:38;-2.40;73.80
20487;DHT22;10402;49.012;8.370;2024-01-11T06:23:04;-2.40;74.00
20487;DHT22;10402;49.012;8.370;2024-01-11T06:25:29;-2.40;74.00
20487;DHT22;10402;49.012;8.370;2024-01-11T06:27:55;-2.30;74.00
20487;DHT22;10402;49.012;8.370;2024-01-11T06:30:21;-2.40;74.00
20487;DHT22;10402;49.012;8.370;2024-01-11T06:32:46;-2.40;74.00
20487;DHT22;10402;49.012;8.370;2024-01-11T06:35:12;-2.40;74.10
20487;DHT22;10402;49.012;8.370;2024-01-11T06:37:37;-2.40;74.10
20487;DHT22;10402;49.012;8.370;2024-01-11T06:40:03;-2.30;74.20
20487;DHT22;10402;49.012;8.370;2024-01-11T06:42:30;-2.30;74.00
20487;DHT22;10402;49.012;8.370;2024-01-11T06:44:56;-2.40;74.00
20487;DHT22;10402;49.012;8.370;2024-01-11T06:47:21;-2.40;74.10
20487;DHT22;10402;49.012;8.370;2024-01-11T06:49:47;-2.40;74.30
20487;DHT22;10402;49.012;8.370;2024-01-11T06:52:12;-2.40;74.30
20487;DHT22;10402;49.012;8.370;2024-01-11T06:54:39;-2.40;74.40
20487;DHT22;10402;49.012;8.370;2024-01-11T06:57:05;-2.40;74.40
20487;DHT22;10402;49.012;8.370;2024-01-11T06:59:30;-2.40;74.40
20487;DHT22;10402;49.012;8.370;2024-01-11T07:01:56;-2.40;74.50
20487;DHT22;10402;49.012;8.370;2024-01-11T07:04:21;-2.40;74.40
20487;DHT22;10402;49.012;8.370;2024-01-11T07:06:47;-2.50;74.40
20487;DHT22;10402;49.012;8.370;2024-01-11T07:09:13;-2.50;74.70
20487;DHT22;10402;49.012;8.370;2024-01-11T07:11:38;-2.60;74.80
20487;DHT22;10402;49.012;8.370;2024-01-11T07:14:04;-2.60;74.90
20487;DHT22;10402;49.012;8.370;2024-01-11T07:16:30;-2.60;75.00
20487;DHT22;10402;49.012;8.370;2024-01-11T07:18:56;-2.60;75.00
20487;DHT22;10402;49.012;8.370;2024-01-11T07:21:22;-2.50;75.00
20487;DHT22;10402;49.012;8.370;2024-01-11T07:23:58;-2.60;74.90
20487;DHT22;10402;49.012;8.370;2024-01-11T07:26:24;-2.60;75.10
20487;DHT22;10402;49.012;8.370;2024-01-11T07:28:50;-2.60;75.40
20487;DHT22;10402;49.012;8.370;2024-01-11T07:31:16;-2.70;75.40
20487;DHT22;10402;49.012;8.370;2024-01-11T07:33:42;-2.60;75.80
20487;DHT22;10402;49.012;8.370;2024-01-11T07:36:07;-2.60;75.90
20487;DHT22;10402;49.012;8.370;2024-01-11T07:38:34;-2.60;76.00
20487;DHT22;10402;49.012;8.370;2024-01-11T07:41:00;-2.70;76.10
20487;DHT22;10402;49.012;8.370;2024-01-11T07:43:25;-2.70;76.30
20487;DHT22;10402;49.012;8.370;2024-01-11T07:45:52;-2.70;76.50
20487;DHT22;10402;49.012;8.370;2024-01-11T07:48:17;-2.80;76.90
20487;DHT22;10402;49.012;8.370;2024-01-11T07:50:43;-2.70;77.20
20487;DHT22;10402;49.012;8.370;2024-01-11T07:53:09;-2.70;77.20
20487;DHT22;10402;49.012;8.370;2024-01-11T07:55:35;-2.70;77.20
20487;DHT22;10402;49.012;8.370;2024-01-11T07:58:00;-2.60;77.30
20487;DHT22;10402;49.012;8.370;2024-01-11T08:00:26;-2.70;77.20
20487;DHT22;10402;49.012;8.370;2024-01-11T08:02:51;-2.70;77.40
20487;DHT22;10402;49.012;8.370;2024-01-11T08:05:17;-2.70;77.50
20487;DHT22;10402;49.012;8.370;2024-01-11T08:07:42;-2.60;77.70
20487;DHT22;10402;49.012;8.370;2024-01-11T08:10:08;-2.50;77.60
20487;DHT22;10402;49.012;8.370;2024-01-11T08:12:36;-2.50;77.40
20487;DHT22;10402;49.012;8.370;2024-01-11T08:15:03;-2.60;77.30
20487;DHT22;10402;49.012;8.370;2024-01-11T08:17:28;-2.60;77.50
20487;DHT22;10402;49.012;8.370;2024-01-11T08:19:56;-2.60;77.70
20487;DHT22;10402;49.012;8.370;2024-01-11T08:22:22;-2.60;77.70
20487;DHT22;10402;49.012;8.370;2024-01-11T08:24:48;-2.60;77.80
20487;DHT22;10402;49.012;8.370;2024-01-11T08:27:14;-2.60;78.00
20487;DHT22;10402;49.012;8.370;2024-01-11T08:29:42;-2.60;77.80
20487;DHT22;10402;49.012;8.370;2024-01-11T08:32:09;-2.60;77.90
20487;DHT22;10402;49.012;8.370;2024-01-11T08:34:34;-2.60;78.00
20487;DHT22;10402;49.012;8.370;2024-01-11T08:37:00;-2.60;78.00
20487;DHT22;10402;49.012;8.370;2024-01-11T08:39:25;-2.60;79.00
20487;DHT22;10402;49.012;8.370;2024-01-11T08:41:51;-2.50;78.30
20487;DHT22;10402;49.012;8.370;2024-01-11T08:44:18;-2.50;78.30
20487;DHT22;10402;49.012;8.370;2024-01-11T08:46:43;-2.40;78.40
20487;DHT22;10402;49.012;8.370;2024-01-11T08:49:09;-2.40;78.20
20487;DHT22;10402;49.012;8.370;2024-01-11T08:51:35;-2.40;78.20
20487;DHT22;10402;49.012;8.370;2024-01-11T08:54:00;-2.40;78.10
20487;DHT22;10402;49.012;8.370;2024-01-11T08:56:26;-2.40;78.00
20487;DHT22;10402;49.012;8.370;2024-01-11T08:58:52;-2.30;78.00
20487;DHT22;10402;49.012;8.370;2024-01-11T09:01:17;-2.30;78.00
20487;DHT22;10402;49.012;8.370;2024-01-11T09:03:43;-2.30;77.90
20487;DHT22;10402;49.012;8.370;2024-01-11T09:06:09;-2.30;78.00
20487;DHT22;10402;49.012;8.370;2024-01-11T09:08:35;-2.20;78.10
20487;DHT22;10402;49.012;8.370;2024-01-11T09:11:01;-2.20;78.10
20487;DHT22;10402;49.012;8.370;2024-01-11T09:13:28;-2.20;77.90
20487;DHT22;10402;49.012;8.370;2024-01-11T09:15:54;-2.10;78.00
20487;DHT22;10402;49.012;8.370;2024-01-11T09:18:20;-2.10;77.80
20487;DHT22;10402;49.012;8.370;2024-01-11T09:20:45;-2.00;77.80
20487;DHT22;10402;49.012;8.370;2024-01-11T09:23:11;-2.00;77.60
20487;DHT22;10402;49.012;8.370;2024-01-11T09:25:37;-2.00;77.60
20487;DHT22;10402;49.012;8.370;2024-01-11T09:28:02;-2.00;77.40
20487;DHT22;10402;49.012;8.370;2024-01-11T09:30:28;-1.90;77.30
20487;DHT22;10402;49.012;8.370;2024-01-11T09:32:54;-1.90;76.90
20487;DHT22;10402;49.012;8.370;2024-01-11T09:35:22;-1.80;76.70
20487;DHT22;10402;49.012;8.370;2024-01-11T09:37:48;-1.80;76.50
20487;DHT22;10402;49.012;8.370;2024-01-11T09:40:14;-1.80;76.30
20487;DHT22;10402;49.012;8.370;2024-01-11T09:42:40;-1.80;76.00
20487;DHT22;10402;49.012;8.370;2024-01-11T09:45:16;-1.70;75.90
20487;DHT22;10402;49.012;8.370;2024-01-11T09:47:43;-1.70;75.80
20487;DHT22;10402;49.012;8.370;2024-01-11T09:50:14;-1.60;75.90
20487;DHT22;10402;49.012;8.370;2024-01-11T09:52:48;-1.60;75.70
20487;DHT22;10402;49.012;8.370;2024-01-11T09:55:14;-1.50;75.30
20487;DHT22;10402;49.012;8.370;2024-01-11T09:57:43;-1.50;75.00
20487;DHT22;10402;49.012;8.370;2024-01-11T10:00:10;-1.50;74.90
20487;DHT22;10402;49.012;8.370;2024-01-11T10:02:38;-1.40;74.80
20487;DHT22;10402;49.012;8.370;2024-01-11T10:05:05;-1.40;74.80
20487;DHT22;10402;49.012;8.370;2024-01-11T10:07:32;-1.30;74.90
20487;DHT22;10402;49.012;8.370;2024-01-11T10:09:59;-1.20;74.70
20487;DHT22;10402;49.012;8.370;2024-01-11T10:12:27;-1.20;74.40
20487;DHT22;10402;49.012;8.370;2024-01-11T10:14:53;-1.20;74.20
20487;DHT22;10402;49.012;8.370;2024-01-11T10:17:18;-1.10;74.10
20487;DHT22;10402;49.012;8.370;2024-01-11T10:19:44;-1.10;73.50
20487;DHT22;10402;49.012;8.370;2024-01-11T10:22:10;-1.10;73.60
20487;DHT22;10402;49.012;8.370;2024-01-11T10:24:38;-1.00;73.60
20487;DHT22;10402;49.012;8.370;2024-01-11T10:27:04;-0.90;73.60
20487;DHT22;10402;49.012;8.370;2024-01-11T10:29:34;-0.80;73.40
20487;DHT22;10402;49.012;8.370;2024-01-11T10:32:03;-0.80;73.00
20487;DHT22;10402;49.012;8.370;2024-01-11T10:34:29;-0.70;73.10
20487;DHT22;10402;49.012;8.370;2024-01-11T10:36:54;-0.70;72.90
20487;DHT22;10402;49.012;8.370;2024-01-11T10:39:24;-0.60;72.80
20487;DHT22;10402;49.012;8.370;2024-01-11T10:41:52;-0.50;72.60
20487;DHT22;10402;49.012;8.370;2024-01-11T10:44:21;-0.50;72.20
20487;DHT22;10402;49.012;8.370;2024-01-11T10:46:49;-0.40;72.00
20487;DHT22;10402;49.012;8.370;2024-01-11T10:49:19;-0.40;72.00
20487;DHT22;10402;49.012;8.370;2024-01-11T10:51:59;-0.30;72.10
20487;DHT22;10402;49.012;8.370;2024-01-11T10:54:27;-0.30;71.70
20487;DHT22;10402;49.012;8.370;2024-01-11T10:56:53;-0.20;71.50
20487;DHT22;10402;49.012;8.370;2024-01-11T10:59:21;-0.20;71.30
20487;DHT22;10402;49.012;8.370;2024-01-11T11:01:52;-0.20;71.20
20487;DHT22;10402;49.012;8.370;2024-01-11T11:04:21;-0.20;71.30
20487;DHT22;10402;49.012;8.370;2024-01-11T11:06:49;-0.20;71.30
20487;DHT22;10402;49.012;8.370;2024-01-11T11:09:17;-0.10;71.30
20487;DHT22;10402;49.012;8.370;2024-01-11T11:11:44;-0.10;71.00
20487;DHT22;10402;49.012;8.370;2024-01-11T11:14:14;-0.10;71.00
20487;DHT22;10402;49.012;8.370;2024-01-11T11:16:40;-0.10;70.90
20487;DHT22;10402;49.012;8.370;2024-01-11T11:19:06;-0.10;70.90
20487;DHT22;10402;49.012;8.370;2024-01-11T11:21:32;-0.10;70.90
20487;DHT22;10402;49.012;8.370;2024-01-11T11:23:57;0.00;70.90
20487;DHT22;10402;49.012;8.370;2024-01-11T11:26:26;0.10;70.70
20487;DHT22;10402;49.012;8.370;2024-01-11T11:28:52;0.10;70.70
20487;DHT22;10402;49.012;8.370;2024-01-11T11:31:44;0.20;70.70
20487;DHT22;10402;49.012;8.370;2024-01-11T11:34:11;0.20;70.50
20487;DHT22;10402;49.012;8.370;2024-01-11T11:36:40;0.20;70.50
20487;DHT22;10402;49.012;8.370;2024-01-11T11:39:05;0.30;70.30
20487;DHT22;10402;49.012;8.370;2024-01-11T11:41:31;0.40;70.40
20487;DHT22;10402;49.012;8.370;2024-01-11T11:44:04;0.40;70.10
20487;DHT22;10402;49.012;8.370;2024-01-11T11:46:31;0.40;70.00
20487;DHT22;10402;49.012;8.370;2024-01-11T11:48:57;0.50;70.20
20487;DHT22;10402;49.012;8.370;2024-01-11T11:51:24;0.50;69.80
20487;DHT22;10402;49.012;8.370;2024-01-11T11:53:50;0.50;69.80
20487;DHT22;10402;49.012;8.370;2024-01-11T11:56:18;0.60;69.80
20487;DHT22;10402;49.012;8.370;2024-01-11T11:58:45;0.60;70.20
20487;DHT22;10402;49.012;8.370;2024-01-11T12:01:14;0.60;69.60
20487;DHT22;10402;49.012;8.370;2024-01-11T12:03:41;0.60;69.60
20487;DHT22;10402;49.012;8.370;2024-01-11T12:06:09;0.60;69.50
20487;DHT22;10402;49.012;8.370;2024-01-11T12:08:38;0.70;69.60
20487;DHT22;10402;49.012;8.370;2024-01-11T12:11:06;0.70;69.60
20487;DHT22;10402;49.012;8.370;2024-01-11T12:13:32;0.80;69.50
20487;DHT22;10402;49.012;8.370;2024-01-11T12:15:58;0.80;69.50
20487;DHT22;10402;49.012;8.370;2024-01-11T12:18:23;0.80;69.30
20487;DHT22;10402;49.012;8.370;2024-01-11T12:20:49;0.90;69.40
20487;DHT22;10402;49.012;8.370;2024-01-11T12:23:16;0.90;69.20
20487;DHT22;10402;49.012;8.370;2024-01-11T12:25:42;0.90;69.10
20487;DHT22;10402;49.012;8.370;2024-01-11T12:28:07;1.00;69.20
20487;DHT22;10402;49.012;8.370;2024-01-11T12:30:33;1.00;69.10
20487;DHT22;10402;49.012;8.370;2024-01-11T12:32:59;1.00;68.90
20487;DHT22;10402;49.012;8.370;2024-01-11T12:35:27;1.10;69.60
20487;DHT22;10402;49.012;8.370;2024-01-11T12:37:54;1.00;68.70
20487;DHT22;10402;49.012;8.370;2024-01-11T12:40:20;1.10;69.40
20487;DHT22;10402;49.012;8.370;2024-01-11T12:42:46;1.10;68.60
20487;DHT22;10402;49.012;8.370;2024-01-11T12:45:12;1.20;68.70
20487;DHT22;10402;49.012;8.370;2024-01-11T12:47:38;1.20;68.50
20487;DHT22;10402;49.012;8.370;2024-01-11T12:50:04;1.30;68.40
20487;DHT22;10402;49.012;8.370;2024-01-11T12:52:30;1.30;68.10
20487;DHT22;10402;49.012;8.370;2024-01-11T12:54:56;1.40;68.10
20487;DHT22;10402;49.012;8.370;2024-01-11T12:57:25;1.40;67.90
20487;DHT22;10402;49.012;8.370;2024-01-11T12:59:51;1.40;67.70
20487;DHT22;10402;49.012;8.370;2024-01-11T13:02:17;1.40;67.60
20487;DHT22;10402;49.012;8.370;2024-01-11T13:04:43;1.50;67.80
20487;DHT22;10402;49.012;8.370;2024-01-11T13:07:12;1.50;67.70
20487;DHT22;10402;49.012;8.370;2024-01-11T13:09:41;1.50;67.80
20487;DHT22;10402;49.012;8.370;2024-01-11T13:12:07;1.60;67.90
20487;DHT22;10402;49.012;8.370;2024-01-11T13:14:32;1.60;67.80
20487;DHT22;10402;49.012;8.370;2024-01-11T13:16:58;1.60;67.70
20487;DHT22;10402;49.012;8.370;2024-01-11T13:19:24;1.60;67.80
20487;DHT22;10402;49.012;8.370;2024-01-11T13:21:50;1.60;67.70
20487;DHT22;10402;49.012;8.370;2024-01-11T13:24:15;1.70;68.40
20487;DHT22;10402;49.012;8.370;2024-01-11T13:26:41;1.70;68.00
20487;DHT22;10402;49.012;8.370;2024-01-11T13:29:06;1.70;67.60
20487;DHT22;10402;49.012;8.370;2024-01-11T13:31:32;1.70;67.50
20487;DHT22;10402;49.012;8.370;2024-01-11T13:33:58;1.70;67.40
20487;DHT22;10402;49.012;8.370;2024-01-11T13:36:24;1.70;67.10
20487;DHT22;10402;49.012;8.370;2024-01-11T13:38:51;1.70;67.30
20487;DHT22;10402;49.012;8.370;2024-01-11T13:41:17;1.70;67.30
20487;DHT22;10402;49.012;8.370;2024-01-11T13:43:45;1.80;67.50
20487;DHT22;10402;49.012;8.370;2024-01-11T13:46:11;1.80;67.00
20487;DHT22;10402;49.012;8.370;2024-01-11T13:48:38;1.80;66.70
20487;DHT22;10402;49.012;8.370;2024-01-11T13:51:04;1.80;66.70
20487;DHT22;10402;49.012;8.370;2024-01-11T13:53:29;1.80;67.10
20487;DHT22;10402;49.012;8.370;2024-01-11T13:55:56;1.80;67.20
20487;DHT22;10402;49.012;8.370;2024-01-11T13:58:22;1.80;67.20
20487;DHT22;10402;49.012;8.370;2024-01-11T14:00:47;1.90;66.80
20487;DHT22;10402;49.012;8.370;2024-01-11T14:03:13;1.80;66.70
20487;DHT22;10402;49.012;8.370;2024-01-11T14:05:38;1.80;66.70
20487;DHT22;10402;49.012;8.370;2024-01-11T14:08:04;1.80;66.90
20487;DHT22;10402;49.012;8.370;2024-01-11T14:10:34;1.80;67.20
20487;DHT22;10402;49.012;8.370;2024-01-11T14:13:00;1.80;66.80
20487;DHT22;10402;49.012;8.370;2024-01-11T14:15:26;1.80;66.70
20487;DHT22;10402;49.012;8.370;2024-01-11T14:17:52;1.80;66.70
20487;DHT22;10402;49.012;8.370;2024-01-11T14:20:18;1.80;66.70
20487;DHT22;10402;49.012;8.370;2024-01-11T14:22:45;1.80;66.70
20487;DHT22;10402;49.012;8.370;2024-01-11T14:25:20;1.80;66.70
20487;DHT22;10402;49.012;8.370;2024-01-11T14:27:47;1.80;66.70
20487;DHT22;10402;49.012;8.370;2024-01-11T14:30:13;1.80;66.70
20487;DHT22;10402;49.012;8.370;2024-01-11T14:32:39;1.80;66.70
20487;DHT22;10402;49.012;8.370;2024-01-11T14:35:06;1.80;66.70
20487;DHT22;10402;49.012;8.370;2024-01-11T14:37:33;1.80;66.70
20487;DHT22;10402;49.012;8.370;2024-01-11T14:39:59;1.80;66.70
20487;DHT22;10402;49.012;8.370;2024-01-11T14:42:26;1.80;66.70
20487;DHT22;10402;49.012;8.370;2024-01-11T14:44:51;1.80;66.70
20487;DHT22;10402;49.012;8.370;2024-01-11T14:47:17;1.80;66.50
20487;DHT22;10402;49.012;8.370;2024-01-11T14:49:43;1.80;66.70
20487;DHT22;10402;49.012;8.370;2024-01-11T14:52:09;1.80;66.60
20487;DHT22;10402;49.012;8.370;2024-01-11T14:54:34;1.80;66.50
20487;DHT22;10402;49.012;8.370;2024-01-11T14:57:00;1.80;66.60
20487;DHT22;10402;49.012;8.370;2024-01-11T14:59:25;1.80;66.70
20487;DHT22;10402;49.012;8.370;2024-01-11T15:01:51;1.80;66.70
20487;DHT22;10402;49.012;8.370;2024-01-11T15:04:17;1.80;66.60
20487;DHT22;10402;49.012;8.370;2024-01-11T15:06:43;1.80;66.70
20487;DHT22;10402;49.012;8.370;2024-01-11T15:09:10;1.80;66.70
20487;DHT22;10402;49.012;8.370;2024-01-11T15:11:38;1.80;66.70
20487;DHT22;10402;49.012;8.370;2024-01-11T15:14:05;1.80;66.70
20487;DHT22;10402;49.012;8.370;2024-01-11T15:16:31;1.80;66.70
20487;DHT22;10402;49.012;8.370;2024-01-11T15:18:56;1.80;66.70
20487;DHT22;10402;49.012;8.370;2024-01-11T15:21:22;1.80;66.70
20487;DHT22;10402;49.012;8.370;2024-01-11T15:23:47;1.80;66.70
20487;DHT22;10402;49.012;8.370;2024-01-11T15:26:13;1.70;66.60
20487;DHT22;10402;49.012;8.370;2024-01-11T15:28:38;1.80;66.60